Merricourt, North Dakota
Current Conditions -  °F | °C
As of 10:56 PM on Friday 24 Oct 2014 (Local Time) from KJMS Reporting Station
Scattered Clouds Scattered Clouds  
Wind Chill: 44°   Ceiling: Unl
Heat Index: 49°   Visibility: 10mi
Dew Point: 34°   Wind: 12mph
Humidity: 56%   Direction: 290°WNW
Pressure: 29.98"   Gusts: NA
Location:  46.2592°N, 98.7407°W
Report Text: KJMS 250356Z AUTO 29010KT 10SM SCT110 09/01 A2998 RMK AO2 SLP156 T00940011
Loading
Personal Weather Stations






























Interactive Weather Map
Tropical Storm Tracking
New forecast layout! Learn more

10-Day Weather Forecast

Advertisements
Track Severe Weather on mobile